createdAt,value
2019-04-26T00:00:25.650Z,13.00
2019-04-26T00:03:01.980Z,12.87
2019-04-26T00:05:35.229Z,13.27
2019-04-26T00:08:07.198Z,14.23
2019-04-26T00:11:18.654Z,13.60
2019-04-26T00:14:26.648Z,13.37
2019-04-26T00:17:27.932Z,12.60
2019-04-26T00:20:00.157Z,13.03
2019-04-26T00:22:32.014Z,14.17
2019-04-26T00:25:03.854Z,13.73
2019-04-26T00:27:35.643Z,14.37
2019-04-26T00:30:07.768Z,13.73
2019-04-26T00:32:39.622Z,14.00
2019-04-26T00:35:12.661Z,14.80
2019-04-26T00:37:44.988Z,13.80
2019-04-26T00:40:16.906Z,14.00
2019-04-26T00:42:49.271Z,13.77
2019-04-26T00:45:22.889Z,13.60
2019-04-26T00:47:55.324Z,13.97
2019-04-26T00:50:27.438Z,13.30
2019-04-26T00:53:00.764Z,13.33
2019-04-26T00:55:35.114Z,13.53
2019-04-26T00:58:07.604Z,12.97
2019-04-26T01:00:39.407Z,13.67
2019-04-26T01:03:11.333Z,13.03
2019-04-26T01:05:43.047Z,13.97
2019-04-26T01:08:15.782Z,13.57
2019-04-26T01:10:47.917Z,14.40
2019-04-26T01:13:19.973Z,12.70
2019-04-26T01:15:51.693Z,13.43
2019-04-26T01:18:24.372Z,13.90
2019-04-26T01:20:59.027Z,13.93
2019-04-26T01:23:33.432Z,14.03
2019-04-26T01:26:11.547Z,14.37
2019-04-26T01:28:53.546Z,13.73
2019-04-26T01:31:28.189Z,13.67
2019-04-26T01:33:59.954Z,13.90
2019-04-26T01:36:32.915Z,13.03
2019-04-26T01:39:17.587Z,14.13
2019-04-26T01:41:57.742Z,13.23
2019-04-26T01:44:53.346Z,13.77
2019-04-26T01:47:26.230Z,13.27
2019-04-26T01:49:58.313Z,13.80
2019-04-26T01:52:30.060Z,13.63
2019-04-26T01:55:02.762Z,13.97
2019-04-26T01:57:34.714Z,14.13
2019-04-26T02:00:27.488Z,14.33
2019-04-26T02:03:03.399Z,13.27
2019-04-26T02:05:35.630Z,13.97
2019-04-26T02:08:07.466Z,14.17
2019-04-26T02:10:39.438Z,13.60
2019-04-26T02:13:11.102Z,14.00
2019-04-26T02:15:42.976Z,14.17
2019-04-26T02:18:14.669Z,13.60
2019-04-26T02:21:03.730Z,14.83
2019-04-26T02:23:48.430Z,13.07
2019-04-26T02:26:38.389Z,13.97
2019-04-26T02:29:13.768Z,13.60
2019-04-26T02:31:48.458Z,14.67
2019-04-26T02:34:20.311Z,13.77
2019-04-26T02:36:58.388Z,13.70
2019-04-26T02:39:33.414Z,13.03
2019-04-26T02:42:07.690Z,14.07
2019-04-26T02:44:59.173Z,14.73
2019-04-26T02:47:52.856Z,14.23
2019-04-26T02:50:41.825Z,14.37
2019-04-26T02:53:33.670Z,14.93
2019-04-26T02:56:40.146Z,14.50
2019-04-26T02:59:44.281Z,14.33
2019-04-26T03:02:25.866Z,14.03
2019-04-26T03:05:05.373Z,14.83
2019-04-26T03:07:53.665Z,14.10
2019-04-26T03:10:36.230Z,14.93
2019-04-26T03:13:12.264Z,13.87
2019-04-26T03:15:57.673Z,14.73
2019-04-26T03:18:55.578Z,14.83
2019-04-26T03:21:57.268Z,15.40
2019-04-26T03:24:37.193Z,15.17
2019-04-26T03:27:43.507Z,14.83
2019-04-26T03:30:41.458Z,15.03
2019-04-26T03:33:43.066Z,15.27
2019-04-26T03:36:43.961Z,14.43
2019-04-26T03:39:36.271Z,15.43
2019-04-26T03:42:29.656Z,15.30
2019-04-26T03:45:32.994Z,15.70
2019-04-26T03:48:26.050Z,16.83
2019-04-26T03:51:08.149Z,15.57
2019-04-26T03:53:53.927Z,15.03
2019-04-26T03:57:01.743Z,15.80
2019-04-26T04:00:03.797Z,14.37
2019-04-26T04:03:21.902Z,14.90
2019-04-26T04:05:57.826Z,15.47
2019-04-26T04:08:46.014Z,14.73
2019-04-26T04:11:21.535Z,13.83
2019-04-26T04:14:23.957Z,15.53
2019-04-26T04:17:22.174Z,16.20
2019-04-26T04:20:42.949Z,15.37
2019-04-26T04:23:48.391Z,15.90
2019-04-26T04:26:25.899Z,15.93
2019-04-26T04:29:42.178Z,14.83
2019-04-26T04:32:14.663Z,15.40
2019-04-26T04:34:49.677Z,15.30
2019-04-26T04:37:24.427Z,15.50
2019-04-26T04:40:13.910Z,15.07
2019-04-26T04:43:30.732Z,15.47
2019-04-26T04:46:54.196Z,15.80
2019-04-26T04:49:37.545Z,15.33
2019-04-26T04:52:29.347Z,15.93
2019-04-26T04:55:08.995Z,16.20
2019-04-26T04:58:08.197Z,15.93
2019-04-26T05:01:21.765Z,15.67
2019-04-26T05:04:03.465Z,15.40
2019-04-26T05:07:27.358Z,15.67
2019-04-26T05:10:12.882Z,16.30
2019-04-26T05:13:07.986Z,14.60
2019-04-26T05:16:16.264Z,16.23
2019-04-26T05:19:33.122Z,15.87
2019-04-26T05:22:37.128Z,15.80
2019-04-26T05:25:57.754Z,15.90
2019-04-26T05:28:56.466Z,15.70
2019-04-26T05:31:50.008Z,16.43
2019-04-26T05:34:49.234Z,17.03
2019-04-26T05:37:39.195Z,16.83
2019-04-26T05:40:28.036Z,17.37
2019-04-26T05:43:30.521Z,17.10
2019-04-26T05:46:35.064Z,17.03
2019-04-26T05:50:08.849Z,17.80
2019-04-26T05:53:55.028Z,17.23
2019-04-26T05:57:06.557Z,17.00
2019-04-26T06:00:24.100Z,16.57
2019-04-26T06:03:26.185Z,16.10
2019-04-26T06:06:24.744Z,15.20
2019-04-26T06:09:31.918Z,14.90
2019-04-26T06:12:16.243Z,16.20
2019-04-26T06:15:45.230Z,16.23
2019-04-26T06:18:46.424Z,14.10
2019-04-26T06:21:54.173Z,14.17
2019-04-26T06:24:42.798Z,13.33
2019-04-26T06:27:56.184Z,15.00
2019-04-26T06:30:44.990Z,13.30
2019-04-26T06:33:24.728Z,13.50
2019-04-26T06:36:00.348Z,14.00
2019-04-26T06:39:15.755Z,14.17
2019-04-26T06:42:37.610Z,14.23
2019-04-26T06:45:52.169Z,14.70
2019-04-26T06:49:05.689Z,14.73
2019-04-26T06:51:43.181Z,14.40
2019-04-26T06:54:21.564Z,15.03
2019-04-26T06:57:59.416Z,14.40
2019-04-26T07:00:43.533Z,13.57
2019-04-26T07:03:43.686Z,13.07
2019-04-26T07:06:34.591Z,13.87
2019-04-26T07:09:05.704Z,13.70
2019-04-26T07:12:47.014Z,12.90
2019-04-26T07:15:44.662Z,13.13
2019-04-26T07:18:48.174Z,12.00
2019-04-26T07:22:14.252Z,12.50
2019-04-26T07:25:38.892Z,12.30
2019-04-26T07:28:49.976Z,11.97
2019-04-26T07:31:52.517Z,10.87
2019-04-26T07:34:48.669Z,12.03
2019-04-26T07:37:51.064Z,11.93
2019-04-26T07:40:46.591Z,12.60
2019-04-26T07:43:53.918Z,11.63
2019-04-26T07:47:01.538Z,12.30
2019-04-26T07:50:19.508Z,11.27
2019-04-26T07:53:30.704Z,10.13
2019-04-26T07:56:14.605Z,10.50
2019-04-26T07:59:39.741Z,10.83
2019-04-26T08:02:54.330Z,10.87
2019-04-26T08:05:39.796Z,10.80
2019-04-26T08:08:14.979Z,10.77
2019-04-26T08:11:14.989Z,9.93
2019-04-26T08:14:14.739Z,10.07
2019-04-26T08:17:33.289Z,9.50
2019-04-26T08:20:32.110Z,9.50
2019-04-26T08:23:16.095Z,10.30
2019-04-26T08:25:43.416Z,8.97
2019-04-26T08:28:20.408Z,9.77
2019-04-26T08:30:55.397Z,10.20
2019-04-26T08:33:41.037Z,10.73
2019-04-26T08:36:14.742Z,9.43
2019-04-26T08:38:52.589Z,9.50
2019-04-26T08:41:25.088Z,9.07
2019-04-26T08:44:19.020Z,9.67
2019-04-26T08:47:06.017Z,9.63
2019-04-26T08:49:58.136Z,10.60
2019-04-26T08:52:33.588Z,9.47
2019-04-26T08:55:07.695Z,9.60
2019-04-26T08:57:42.616Z,8.47
2019-04-26T09:00:39.380Z,8.97
2019-04-26T09:03:27.204Z,9.10
2019-04-26T09:06:14.757Z,8.27
2019-04-26T09:08:49.461Z,8.67
2019-04-26T09:11:29.947Z,10.13
2019-04-26T09:13:58.565Z,8.57
2019-04-26T09:16:32.125Z,8.60
2019-04-26T09:19:04.305Z,8.30
2019-04-26T09:21:51.844Z,8.93
2019-04-26T09:24:45.472Z,10.80
2019-04-26T09:27:36.898Z,8.33
2019-04-26T09:30:18.390Z,9.53
2019-04-26T09:32:58.236Z,9.00
2019-04-26T09:35:29.280Z,8.93
2019-04-26T09:38:01.316Z,8.43
2019-04-26T09:40:33.352Z,9.57
2019-04-26T09:43:26.865Z,8.13
2019-04-26T09:46:25.702Z,8.20
2019-04-26T09:49:16.875Z,8.50
2019-04-26T09:51:48.912Z,9.37
2019-04-26T09:54:21.157Z,8.53
2019-04-26T09:56:53.558Z,8.80
2019-04-26T09:59:25.888Z,8.67
2019-04-26T10:01:59.417Z,7.53
2019-04-26T10:04:31.229Z,7.33
2019-04-26T10:07:04.185Z,8.07
2019-04-26T10:09:36.512Z,8.50
2019-04-26T10:12:17.553Z,8.60
2019-04-26T10:15:00.470Z,7.07
2019-04-26T10:17:33.660Z,7.73
2019-04-26T10:20:05.955Z,7.13
2019-04-26T10:22:38.591Z,6.90
2019-04-26T10:25:16.541Z,6.30
2019-04-26T10:27:45.222Z,7.43
2019-04-26T10:30:17.957Z,6.53
2019-04-26T10:32:50.642Z,7.50
2019-04-26T10:35:23.276Z,5.93
2019-04-26T10:37:55.345Z,6.07
2019-04-26T10:40:35.381Z,7.10
2019-04-26T10:43:01.141Z,6.20
2019-04-26T10:45:33.432Z,7.03
2019-04-26T10:48:09.562Z,7.97
2019-04-26T10:50:39.887Z,6.13
2019-04-26T10:53:38.430Z,5.63
2019-04-26T10:56:30.105Z,5.83
2019-04-26T10:59:33.599Z,4.87
2019-04-26T11:02:09.774Z,5.03
2019-04-26T11:04:42.891Z,5.60
2019-04-26T11:07:15.570Z,6.43
2019-04-26T11:09:47.594Z,6.40
2019-04-26T11:12:19.676Z,5.67
2019-04-26T11:14:53.426Z,5.60
2019-04-26T11:17:26.388Z,5.60
2019-04-26T11:19:58.605Z,6.17
2019-04-26T11:22:33.461Z,7.13
2019-04-26T11:25:04.534Z,5.50
2019-04-26T11:27:36.638Z,7.27
2019-04-26T11:30:12.232Z,7.03
2019-04-26T11:32:42.793Z,6.43
2019-04-26T11:35:15.276Z,5.90
2019-04-26T11:37:50.759Z,6.57
2019-04-26T11:40:22.306Z,5.43
2019-04-26T11:42:54.710Z,5.80
2019-04-26T11:45:26.384Z,5.10
2019-04-26T11:47:58.388Z,6.27
2019-04-26T11:50:31.260Z,5.97
2019-04-26T11:53:06.199Z,5.30
2019-04-26T11:55:37.189Z,5.43
2019-04-26T11:58:09.106Z,6.17
2019-04-26T12:00:46.651Z,5.50
2019-04-26T12:03:21.201Z,3.97
2019-04-26T12:05:58.844Z,4.67
2019-04-26T12:08:42.128Z,5.60
2019-04-26T12:11:18.978Z,5.27
2019-04-26T12:13:47.850Z,4.70
2019-04-26T12:16:20.644Z,4.87
2019-04-26T12:18:52.688Z,5.60
2019-04-26T12:21:25.045Z,4.80
2019-04-26T12:23:56.784Z,4.57
2019-04-26T12:26:28.799Z,4.97
2019-04-26T12:29:00.430Z,4.60
2019-04-26T12:31:32.731Z,5.00
2019-04-26T12:34:04.910Z,4.10
2019-04-26T12:36:36.774Z,4.40
2019-04-26T12:39:11.530Z,5.30
2019-04-26T12:41:43.802Z,4.10
2019-04-26T12:44:15.958Z,3.57
2019-04-26T12:47:03.446Z,4.03
2019-04-26T12:49:35.606Z,3.80
2019-04-26T12:52:08.431Z,4.60
2019-04-26T12:54:43.002Z,4.40
2019-04-26T12:57:16.295Z,3.70
2019-04-26T12:59:48.465Z,4.30
2019-04-26T13:02:21.867Z,4.43
2019-04-26T13:04:54.388Z,4.23
2019-04-26T13:07:26.439Z,4.10
2019-04-26T13:10:15.826Z,4.93
2019-04-26T13:12:58.509Z,4.40
2019-04-26T13:16:03.255Z,3.67
2019-04-26T13:18:35.297Z,5.00
2019-04-26T13:21:07.434Z,4.10
2019-04-26T13:23:39.474Z,5.07
2019-04-26T13:26:11.328Z,4.10
2019-04-26T13:28:43.591Z,4.53
2019-04-26T13:31:15.833Z,5.40
2019-04-26T13:33:47.897Z,5.43
2019-04-26T13:36:19.920Z,4.40
2019-04-26T13:38:51.993Z,4.90
2019-04-26T13:41:24.621Z,4.70
2019-04-26T13:43:57.229Z,5.00
2019-04-26T13:46:49.800Z,4.03
2019-04-26T13:49:48.293Z,5.70
2019-04-26T13:52:20.388Z,5.60
2019-04-26T13:54:55.522Z,4.87
2019-04-26T13:57:26.132Z,5.77
2019-04-26T14:00:02.431Z,4.93
2019-04-26T14:02:32.508Z,5.40
2019-04-26T14:05:04.348Z,4.93
2019-04-26T14:07:37.510Z,5.20
2019-04-26T14:10:09.648Z,5.83
2019-04-26T14:12:41.560Z,5.13
2019-04-26T14:15:13.622Z,6.40
2019-04-26T14:17:45.773Z,5.87
2019-04-26T14:20:19.203Z,5.20
2019-04-26T14:23:11.283Z,6.13
2019-04-26T14:25:56.306Z,4.70
2019-04-26T14:28:28.504Z,4.93
2019-04-26T14:31:01.966Z,4.43
2019-04-26T14:33:34.833Z,5.37
2019-04-26T14:36:17.089Z,5.53
2019-04-26T14:38:41.396Z,4.70
2019-04-26T14:41:22.012Z,4.97
2019-04-26T14:43:48.289Z,4.70
2019-04-26T14:46:22.902Z,5.80
2019-04-26T14:49:02.161Z,5.27
2019-04-26T14:51:29.133Z,5.20
2019-04-26T14:54:01.100Z,4.93
2019-04-26T14:56:33.141Z,5.03
2019-04-26T14:59:08.328Z,4.90
2019-04-26T15:02:06.280Z,4.73
2019-04-26T15:05:02.957Z,5.00
2019-04-26T15:07:35.055Z,5.53
2019-04-26T15:10:10.999Z,5.70
2019-04-26T15:12:47.012Z,5.63
2019-04-26T15:15:15.842Z,5.20
2019-04-26T15:17:47.842Z,5.20
2019-04-26T15:20:20.912Z,5.03
2019-04-26T15:22:53.374Z,5.43
2019-04-26T15:25:26.600Z,5.73
2019-04-26T15:27:58.625Z,5.07
2019-04-26T15:30:34.255Z,6.13
2019-04-26T15:33:08.641Z,5.70
2019-04-26T15:35:38.431Z,6.17
2019-04-26T15:38:10.716Z,6.30
2019-04-26T15:41:05.242Z,5.20
2019-04-26T15:44:16.256Z,5.20
2019-04-26T15:47:18.252Z,5.60
2019-04-26T15:50:05.592Z,5.70
2019-04-26T15:52:35.378Z,5.80
2019-04-26T15:55:07.875Z,5.07
2019-04-26T15:57:40.174Z,6.00
2019-04-26T16:00:12.597Z,5.10
2019-04-26T16:02:44.845Z,6.27
2019-04-26T16:05:16.929Z,6.00
2019-04-26T16:07:49.570Z,5.43
2019-04-26T16:10:25.628Z,5.83
2019-04-26T16:12:56.251Z,5.23
2019-04-26T16:15:28.524Z,6.30
2019-04-26T16:18:03.875Z,5.77
2019-04-26T16:20:38.057Z,5.30
2019-04-26T16:23:08.182Z,7.20
2019-04-26T16:25:40.182Z,5.47
2019-04-26T16:28:38.397Z,6.07
2019-04-26T16:31:27.008Z,5.97
2019-04-26T16:34:10.512Z,6.33
2019-04-26T16:36:42.197Z,5.30
2019-04-26T16:39:13.062Z,6.00
2019-04-26T16:41:45.392Z,4.97
2019-04-26T16:44:19.348Z,6.00
2019-04-26T16:46:53.913Z,6.07
2019-04-26T16:49:24.576Z,6.50
2019-04-26T16:54:30.726Z,5.30
2019-04-26T16:57:06.821Z,6.07
2019-04-26T16:59:36.206Z,5.40
2019-04-26T17:00:45.395Z,5.90
2019-04-26T17:02:08.051Z,5.10
2019-04-26T17:04:40.046Z,5.93
2019-04-26T17:07:13.454Z,5.50
2019-04-26T17:09:58.984Z,8.10
2019-04-26T17:12:20.057Z,6.80
2019-04-26T17:14:52.606Z,5.43
2019-04-26T17:17:24.748Z,5.97
2019-04-26T17:19:56.614Z,8.67
2019-04-26T17:22:51.631Z,5.97
2019-04-26T17:25:24.228Z,5.97
2019-04-26T17:27:55.474Z,5.80
2019-04-26T17:30:27.326Z,6.40
2019-04-26T17:32:59.346Z,6.83
2019-04-26T17:35:32.781Z,7.40
2019-04-26T17:38:05.237Z,6.60
2019-04-26T17:40:38.070Z,7.10
2019-04-26T17:43:11.464Z,7.87
2019-04-26T17:45:44.339Z,7.50
2019-04-26T17:48:16.335Z,6.63
2019-04-26T17:50:48.286Z,6.97
2019-04-26T17:53:30.782Z,6.43
2019-04-26T17:55:55.081Z,7.87
2019-04-26T17:58:31.150Z,5.60
2019-04-26T18:01:03.707Z,5.53
2019-04-26T18:03:35.013Z,6.77
2019-04-26T18:06:09.561Z,6.03
2019-04-26T18:08:47.550Z,6.43
2019-04-26T18:11:19.566Z,6.53
2019-04-26T18:13:51.210Z,6.70
2019-04-26T18:16:27.364Z,6.90
2019-04-26T18:19:05.103Z,6.27
2019-04-26T18:22:00.872Z,7.20
2019-04-26T18:24:34.985Z,6.10
2019-04-26T18:27:06.488Z,7.10
2019-04-26T18:29:39.052Z,6.53
2019-04-26T18:32:12.966Z,6.93
2019-04-26T18:34:45.318Z,7.50
2019-04-26T18:37:17.386Z,7.10
2019-04-26T18:39:49.708Z,7.07
2019-04-26T18:42:22.072Z,6.33
2019-04-26T18:44:56.015Z,6.07
2019-04-26T18:47:34.187Z,6.20
2019-04-26T18:50:06.520Z,7.57
2019-04-26T18:52:43.711Z,5.90
2019-04-26T18:55:29.033Z,5.87
2019-04-26T18:58:01.544Z,7.33
2019-04-26T19:00:35.704Z,6.27
2019-04-26T19:03:08.456Z,6.67
2019-04-26T19:05:40.484Z,7.20
2019-04-26T19:08:14.813Z,6.97
2019-04-26T19:10:58.279Z,7.27
2019-04-26T19:13:59.444Z,6.37
2019-04-26T19:16:59.185Z,6.47
2019-04-26T19:19:59.609Z,6.87
2019-04-26T19:22:32.182Z,9.03
2019-04-26T19:25:05.608Z,7.60
2019-04-26T19:27:47.427Z,7.33
2019-04-26T19:30:13.745Z,7.33
2019-04-26T19:32:45.996Z,6.80
2019-04-26T19:35:18.112Z,7.13
2019-04-26T19:37:51.654Z,6.23
2019-04-26T19:40:23.636Z,6.27
2019-04-26T19:42:57.511Z,7.20
2019-04-26T19:46:08.900Z,7.97
2019-04-26T19:49:19.294Z,6.27
2019-04-26T19:52:07.424Z,9.23
2019-04-26T19:54:46.817Z,8.03
2019-04-26T19:57:23.895Z,8.57
2019-04-26T19:59:56.140Z,8.90
2019-04-26T20:02:35.857Z,8.67
2019-04-26T20:05:06.446Z,8.00
2019-04-26T20:07:36.852Z,9.60
2019-04-26T20:10:08.854Z,8.80
2019-04-26T20:12:41.351Z,9.57
2019-04-26T20:15:25.422Z,9.60
2019-04-26T20:17:52.865Z,7.93
2019-04-26T20:20:23.231Z,9.13
2019-04-26T20:22:54.641Z,8.70
2019-04-26T20:25:29.740Z,8.23
2019-04-26T20:28:00.992Z,9.00
2019-04-26T20:30:52.167Z,8.37
2019-04-26T20:33:26.759Z,8.30
2019-04-26T20:36:03.300Z,7.97
2019-04-26T20:38:35.903Z,9.47
2019-04-26T20:41:05.208Z,9.53
2019-04-26T20:43:44.344Z,9.13
2019-04-26T20:46:15.152Z,8.80
2019-04-26T20:48:45.212Z,8.60
2019-04-26T20:51:18.340Z,7.83
2019-04-26T20:53:50.368Z,9.53
2019-04-26T20:56:22.620Z,9.17
2019-04-26T20:58:57.451Z,10.90
2019-04-26T21:01:28.691Z,9.27
2019-04-26T21:04:02.003Z,9.00
2019-04-26T21:06:36.930Z,8.97
2019-04-26T21:09:11.795Z,9.40
2019-04-26T21:11:43.811Z,9.20
2019-04-26T21:14:15.808Z,8.70
2019-04-26T21:16:49.407Z,8.80
2019-04-26T21:19:21.469Z,10.77
2019-04-26T21:21:54.400Z,10.00
2019-04-26T21:24:27.954Z,8.43
2019-04-26T21:27:30.134Z,9.13
2019-04-26T21:30:23.854Z,9.30
2019-04-26T21:33:08.242Z,10.13
2019-04-26T21:35:47.277Z,8.70
2019-04-26T21:38:49.359Z,9.90
2019-04-26T21:41:25.197Z,9.77
2019-04-26T21:43:56.979Z,9.23
2019-04-26T21:46:29.094Z,8.80
2019-04-26T21:49:00.981Z,8.93
2019-04-26T21:51:34.012Z,8.03
2019-04-26T21:54:06.222Z,10.97
2019-04-26T21:56:38.164Z,9.30
2019-04-26T21:59:09.995Z,9.40
2019-04-26T22:01:43.521Z,9.83
2019-04-26T22:04:15.420Z,11.00
2019-04-26T22:06:47.704Z,9.73
2019-04-26T22:09:46.894Z,9.50
2019-04-26T22:12:18.993Z,9.90
2019-04-26T22:15:00.751Z,9.47
2019-04-26T22:17:40.701Z,12.20
2019-04-26T22:20:28.519Z,12.40
2019-04-26T22:23:18.398Z,13.13
2019-04-26T22:25:52.112Z,14.27
2019-04-26T22:28:26.729Z,13.40
2019-04-26T22:30:59.276Z,13.17
2019-04-26T22:33:31.918Z,11.63
2019-04-26T22:36:05.107Z,12.37
2019-04-26T22:38:37.026Z,12.50
2019-04-26T22:41:08.965Z,13.80
2019-04-26T22:44:03.912Z,14.97
2019-04-26T22:47:03.525Z,14.83
2019-04-26T22:49:34.999Z,12.27
2019-04-26T22:52:11.262Z,14.87
2019-04-26T22:54:42.913Z,13.47
2019-04-26T22:57:16.193Z,13.03
2019-04-26T22:59:50.538Z,12.87
2019-04-26T23:02:25.383Z,11.87
2019-04-26T23:04:56.048Z,14.20
2019-04-26T23:07:28.952Z,11.70
2019-04-26T23:10:00.770Z,11.10
2019-04-26T23:12:51.307Z,12.03
2019-04-26T23:15:33.158Z,11.50
2019-04-26T23:18:43.876Z,12.53
2019-04-26T23:21:20.764Z,12.20
2019-04-26T23:23:53.463Z,11.53
2019-04-26T23:26:25.444Z,11.37
2019-04-26T23:28:57.062Z,10.47
2019-04-26T23:31:29.126Z,12.80
2019-04-26T23:34:02.853Z,12.73
2019-04-26T23:36:34.904Z,12.57
2019-04-26T23:39:11.668Z,11.47
2019-04-26T23:41:41.552Z,13.73
2019-04-26T23:44:14.858Z,12.57
2019-04-26T23:46:46.769Z,12.60
2019-04-26T23:49:19.326Z,12.60
2019-04-26T23:51:53.331Z,12.33
2019-04-26T23:54:28.091Z,11.20
2019-04-26T23:56:59.012Z,12.20
2019-04-26T23:59:31.037Z,12.47
